createdAt,value
2022-12-08T00:00:01.855Z,8.30
2022-12-08T00:02:58.978Z,9.63
2022-12-08T00:06:05.950Z,9.55
2022-12-08T00:09:12.318Z,7.50
2022-12-08T00:12:02.610Z,10.52
2022-12-08T00:14:50.177Z,10.98
2022-12-08T00:17:37.699Z,11.40
2022-12-08T00:20:25.178Z,9.52
2022-12-08T00:23:12.664Z,10.00
2022-12-08T00:26:04.994Z,9.68
2022-12-08T00:28:52.486Z,9.45
2022-12-08T00:31:40.047Z,7.07
2022-12-08T00:34:27.609Z,11.65
2022-12-08T00:37:14.626Z,13.32
2022-12-08T00:40:03.030Z,9.35
2022-12-08T00:42:50.730Z,8.00
2022-12-08T00:45:37.939Z,9.30
2022-12-08T00:48:25.530Z,8.13
2022-12-08T00:51:12.983Z,8.55
2022-12-08T00:54:00.722Z,7.70
2022-12-08T00:56:48.205Z,7.82
2022-12-08T00:59:35.753Z,8.15
2022-12-08T01:02:24.307Z,8.23
2022-12-08T01:05:11.788Z,8.50
2022-12-08T01:07:59.302Z,8.82
2022-12-08T01:10:46.819Z,7.35
2022-12-08T01:13:34.509Z,10.68
2022-12-08T01:16:25.245Z,6.95
2022-12-08T01:19:14.318Z,6.97
2022-12-08T01:22:01.782Z,6.50
2022-12-08T01:24:48.897Z,8.25
2022-12-08T01:27:35.974Z,12.50
2022-12-08T01:30:23.082Z,4.72
2022-12-08T01:33:10.529Z,10.30
2022-12-08T01:36:04.378Z,8.00
2022-12-08T01:38:52.069Z,11.25
2022-12-08T01:41:39.965Z,8.48
2022-12-08T01:44:27.607Z,12.05
2022-12-08T01:47:15.092Z,10.13
2022-12-08T01:50:03.890Z,7.80
2022-12-08T01:52:59.338Z,8.18
2022-12-08T01:55:53.653Z,12.05
2022-12-08T01:58:49.491Z,9.38
2022-12-08T02:01:37.266Z,8.40
2022-12-08T02:04:24.798Z,8.90
2022-12-08T02:07:14.436Z,6.53
2022-12-08T02:10:03.301Z,8.25
2022-12-08T02:12:54.001Z,9.70
2022-12-08T02:16:10.259Z,10.45
2022-12-08T02:19:30.412Z,4.43
2022-12-08T02:22:24.226Z,11.38
2022-12-08T02:25:29.262Z,9.68
2022-12-08T02:28:35.671Z,7.65
2022-12-08T02:31:50.846Z,12.15
2022-12-08T02:34:47.789Z,8.40
2022-12-08T02:37:44.127Z,8.88
2022-12-08T02:41:03.061Z,10.45
2022-12-08T02:44:05.507Z,12.52
2022-12-08T02:47:14.053Z,10.63
2022-12-08T02:50:01.849Z,7.35
2022-12-08T02:52:50.008Z,11.88
2022-12-08T02:56:22.563Z,11.13
2022-12-08T03:00:03.887Z,13.45
2022-12-08T03:03:14.391Z,12.60
2022-12-08T03:06:25.916Z,10.48
2022-12-08T03:09:32.033Z,12.43
2022-12-08T03:12:47.903Z,11.45
2022-12-08T03:15:37.281Z,9.63
2022-12-08T03:18:31.276Z,11.88
2022-12-08T03:21:20.903Z,13.27
2022-12-08T03:24:10.708Z,12.45
2022-12-08T03:27:04.940Z,13.68
2022-12-08T03:29:54.113Z,12.93
2022-12-08T03:32:48.290Z,14.75
2022-12-08T03:35:39.221Z,14.45
2022-12-08T03:38:26.817Z,14.35
2022-12-08T03:41:20.873Z,12.15
2022-12-08T03:44:08.395Z,13.35
2022-12-08T03:46:55.884Z,13.48
2022-12-08T03:49:43.409Z,10.35
2022-12-08T03:52:30.955Z,15.43
2022-12-08T03:55:18.603Z,11.63
2022-12-08T03:58:06.085Z,16.02
2022-12-08T04:00:53.580Z,15.30
2022-12-08T04:03:41.131Z,18.25
2022-12-08T04:06:28.776Z,11.32
2022-12-08T04:09:16.610Z,15.93
2022-12-08T04:12:04.284Z,13.88
2022-12-08T04:14:51.918Z,10.57
2022-12-08T04:17:39.502Z,14.63
2022-12-08T04:20:27.076Z,12.77
2022-12-08T04:23:14.667Z,17.92
2022-12-08T04:26:02.271Z,16.73
2022-12-08T04:28:49.771Z,15.77
2022-12-08T04:31:37.062Z,18.75
2022-12-08T04:34:24.655Z,18.50
2022-12-08T04:37:12.172Z,17.30
2022-12-08T04:39:59.659Z,21.27
2022-12-08T04:42:47.213Z,21.23
2022-12-08T04:45:35.107Z,20.92
2022-12-08T04:48:22.699Z,20.63
2022-12-08T04:51:16.875Z,19.95
2022-12-08T04:54:04.426Z,24.65
2022-12-08T04:56:51.893Z,22.95
2022-12-08T04:59:39.405Z,22.65
2022-12-08T05:02:26.918Z,22.30
2022-12-08T05:05:14.413Z,17.40
2022-12-08T05:08:01.984Z,27.23
2022-12-08T05:10:49.485Z,20.10
2022-12-08T05:13:37.563Z,20.52
2022-12-08T05:16:25.114Z,19.90
2022-12-08T05:19:12.886Z,56.53
2022-12-08T05:22:00.542Z,20.35
2022-12-08T05:24:48.068Z,22.23
2022-12-08T05:27:35.800Z,34.03
2022-12-08T05:30:23.323Z,19.60
2022-12-08T05:33:10.967Z,29.27
2022-12-08T05:35:58.176Z,27.30
2022-12-08T05:38:45.948Z,29.30
2022-12-08T05:41:33.495Z,26.90
2022-12-08T05:44:21.471Z,22.05
2022-12-08T05:47:09.023Z,29.42
2022-12-08T05:49:56.532Z,58.78
2022-12-08T05:52:43.891Z,34.38
2022-12-08T05:55:34.332Z,33.33
2022-12-08T05:58:23.270Z,34.22
2022-12-08T06:01:28.392Z,29.67
2022-12-08T06:04:15.985Z,35.70
2022-12-08T06:07:03.798Z,29.23
2022-12-08T06:09:51.581Z,29.60
2022-12-08T06:12:39.290Z,27.55
2022-12-08T06:15:27.176Z,27.88
2022-12-08T06:18:15.270Z,28.75
2022-12-08T06:21:07.484Z,29.30
2022-12-08T06:23:55.458Z,31.15
2022-12-08T06:26:43.429Z,29.38
2022-12-08T06:29:31.040Z,24.23
2022-12-08T06:32:20.777Z,30.67
2022-12-08T06:35:12.210Z,31.65
2022-12-08T06:37:59.776Z,29.92
2022-12-08T06:40:56.737Z,28.10
2022-12-08T06:43:45.181Z,28.90
2022-12-08T06:46:32.791Z,26.55
2022-12-08T06:49:20.401Z,25.48
2022-12-08T06:52:07.951Z,23.77
2022-12-08T06:54:55.224Z,22.48
2022-12-08T06:57:42.756Z,22.27
2022-12-08T07:00:29.987Z,22.40
2022-12-08T07:03:17.731Z,22.20
2022-12-08T07:06:05.643Z,20.67
2022-12-08T07:08:53.374Z,19.15
2022-12-08T07:11:40.813Z,20.02
2022-12-08T07:14:28.346Z,22.13
2022-12-08T07:17:16.109Z,19.98
2022-12-08T07:20:04.133Z,15.60
2022-12-08T07:22:52.657Z,15.85
2022-12-08T07:25:39.966Z,18.17
2022-12-08T07:28:27.626Z,16.13
2022-12-08T07:31:21.093Z,15.80
2022-12-08T07:34:08.758Z,16.63
2022-12-08T07:36:56.325Z,11.73
2022-12-08T07:39:44.186Z,17.67
2022-12-08T07:42:32.630Z,16.95
2022-12-08T07:45:20.130Z,16.33
2022-12-08T07:48:07.775Z,16.05
2022-12-08T07:51:01.401Z,16.58
2022-12-08T07:53:53.817Z,18.48
2022-12-08T07:56:41.896Z,17.55
2022-12-08T07:59:29.370Z,15.82
2022-12-08T08:02:24.740Z,16.80
2022-12-08T08:05:13.347Z,16.98
2022-12-08T08:08:01.438Z,18.90
2022-12-08T08:10:48.985Z,16.23
2022-12-08T08:13:37.159Z,16.70
2022-12-08T08:16:24.795Z,17.73
2022-12-08T08:19:12.396Z,16.80
2022-12-08T08:21:59.887Z,18.65
2022-12-08T08:24:47.423Z,17.30
2022-12-08T08:27:34.924Z,18.63
2022-12-08T08:30:22.451Z,19.65
2022-12-08T08:33:09.955Z,16.25
2022-12-08T08:35:57.510Z,15.38
2022-12-08T08:38:45.093Z,18.95
2022-12-08T08:41:32.587Z,18.52
2022-12-08T08:44:20.008Z,16.60
2022-12-08T08:47:07.660Z,18.63
2022-12-08T08:49:55.436Z,18.25
2022-12-08T08:52:42.983Z,18.10
2022-12-08T08:55:30.477Z,17.48
2022-12-08T08:58:18.168Z,15.18
2022-12-08T09:01:05.562Z,16.02
2022-12-08T09:03:53.133Z,17.17
2022-12-08T09:06:40.744Z,16.20
2022-12-08T09:09:28.653Z,15.77
2022-12-08T09:12:16.297Z,15.73
2022-12-08T09:15:03.876Z,14.05
2022-12-08T09:17:51.769Z,13.18
2022-12-08T09:20:38.965Z,13.70
2022-12-08T09:23:29.445Z,12.65
2022-12-08T09:26:22.396Z,13.35
2022-12-08T09:29:10.987Z,12.23
2022-12-08T09:31:58.520Z,11.45
2022-12-08T09:34:51.800Z,11.55
2022-12-08T09:37:39.749Z,12.52
2022-12-08T09:40:27.724Z,11.30
2022-12-08T09:43:27.847Z,12.88
2022-12-08T09:46:17.387Z,11.45
2022-12-08T09:49:06.894Z,11.45
2022-12-08T09:51:54.622Z,12.38
2022-12-08T09:54:42.113Z,11.95
2022-12-08T09:57:31.882Z,12.35
2022-12-08T10:00:19.408Z,11.20
2022-12-08T10:03:16.458Z,11.55
2022-12-08T10:06:41.163Z,11.85
2022-12-08T10:09:43.403Z,11.43
2022-12-08T10:12:49.966Z,11.60
2022-12-08T10:16:01.572Z,12.82
2022-12-08T10:18:57.751Z,10.52
2022-12-08T10:21:45.220Z,10.45
2022-12-08T10:24:42.059Z,11.18
2022-12-08T10:27:29.642Z,11.45
2022-12-08T10:30:18.863Z,10.40
2022-12-08T10:33:06.395Z,11.35
2022-12-08T10:35:58.282Z,11.57
2022-12-08T10:38:45.811Z,12.57
2022-12-08T10:41:33.334Z,13.57
2022-12-08T10:44:21.187Z,12.63
2022-12-08T10:47:13.098Z,8.10
2022-12-08T10:50:22.006Z,6.50
2022-12-08T10:53:09.917Z,5.80
2022-12-08T10:56:03.011Z,2.83
2022-12-08T10:59:06.105Z,2.70
2022-12-08T11:01:56.343Z,2.35
2022-12-08T11:04:44.009Z,2.22
2022-12-08T11:07:31.505Z,2.58
2022-12-08T11:10:20.801Z,2.22
2022-12-08T11:13:23.618Z,2.67
2022-12-08T11:16:16.354Z,3.42
2022-12-08T11:19:07.868Z,2.92
2022-12-08T11:21:55.529Z,2.72
2022-12-08T11:24:43.054Z,3.17
2022-12-08T11:27:32.360Z,3.08
2022-12-08T11:30:24.922Z,3.42
2022-12-08T11:33:22.295Z,3.58
2022-12-08T11:36:13.448Z,3.05
2022-12-08T11:39:04.474Z,4.90
2022-12-08T11:41:54.419Z,3.22
2022-12-08T11:44:49.971Z,3.45
2022-12-08T11:48:05.535Z,4.03
2022-12-08T11:50:53.045Z,3.40
2022-12-08T11:54:18.961Z,3.22
2022-12-08T11:57:12.816Z,4.07
2022-12-08T12:00:01.487Z,3.95
2022-12-08T12:03:06.735Z,4.28
2022-12-08T12:09:41.448Z,3.70
2022-12-08T12:13:06.142Z,3.60
2022-12-08T12:16:08.595Z,4.70
2022-12-08T12:19:18.425Z,4.50
2022-12-08T12:22:17.642Z,5.72
2022-12-08T12:25:06.669Z,7.90
2022-12-08T12:27:59.467Z,6.45
2022-12-08T12:31:06.556Z,6.50
2022-12-08T12:34:03.654Z,5.57
2022-12-08T12:37:14.660Z,5.65
2022-12-08T12:40:23.726Z,7.78
2022-12-08T12:43:11.229Z,5.30
2022-12-08T12:46:23.108Z,5.95
2022-12-08T12:49:55.602Z,7.55
2022-12-08T12:52:43.462Z,5.53
2022-12-08T12:55:58.404Z,6.13
2022-12-08T12:58:45.899Z,6.20
2022-12-08T13:01:42.586Z,6.55
2022-12-08T13:04:54.189Z,6.53
2022-12-08T13:08:21.254Z,6.35
2022-12-08T13:11:10.785Z,5.97
2022-12-08T13:13:58.261Z,6.65
2022-12-08T13:16:45.919Z,7.47
2022-12-08T13:19:35.787Z,6.28
2022-12-08T13:22:53.612Z,5.43
2022-12-08T13:25:41.484Z,7.43
2022-12-08T13:28:30.450Z,7.32
2022-12-08T13:31:37.762Z,6.68
2022-12-08T13:34:46.044Z,7.00
2022-12-08T13:37:55.393Z,6.03
2022-12-08T13:40:43.844Z,6.07
2022-12-08T13:44:20.533Z,6.57
2022-12-08T13:47:32.134Z,7.75
2022-12-08T13:57:09.959Z,5.13
2022-12-08T13:59:53.721Z,5.03
2022-12-08T14:02:48.575Z,5.38
2022-12-08T14:06:11.120Z,4.32
2022-12-08T14:09:02.407Z,4.57
2022-12-08T14:12:06.677Z,5.57
2022-12-08T14:15:06.344Z,5.05
2022-12-08T14:17:56.147Z,5.80
2022-12-08T14:21:18.806Z,7.00
2022-12-08T14:23:50.764Z,6.60
2022-12-08T14:26:38.612Z,5.80
2022-12-08T14:29:40.866Z,6.07
2022-12-08T14:32:31.640Z,5.22
2022-12-08T14:35:19.602Z,6.63
2022-12-08T14:38:13.701Z,6.10
2022-12-08T14:41:01.176Z,5.65
2022-12-08T14:43:58.692Z,5.63
2022-12-08T14:47:10.027Z,5.60
2022-12-08T14:49:58.256Z,4.85
2022-12-08T14:52:45.931Z,5.30
2022-12-08T14:55:37.426Z,6.05
2022-12-08T14:58:31.371Z,5.60
2022-12-08T15:01:23.418Z,6.65
2022-12-08T15:04:14.432Z,6.00
2022-12-08T15:07:20.592Z,6.35
2022-12-08T15:10:16.925Z,7.00
2022-12-08T15:13:20.612Z,5.68
2022-12-08T15:16:36.684Z,6.25
2022-12-08T15:19:32.893Z,5.35
2022-12-08T15:22:22.722Z,6.00
2022-12-08T15:25:13.822Z,7.07
2022-12-08T15:28:02.692Z,6.20
2022-12-08T15:30:51.069Z,6.63
2022-12-08T15:33:38.584Z,5.95
2022-12-08T15:36:26.069Z,8.32
2022-12-08T15:39:35.195Z,6.28
2022-12-08T15:42:22.348Z,6.32
2022-12-08T15:45:14.432Z,8.32
2022-12-08T15:48:01.970Z,6.50
2022-12-08T15:50:49.868Z,6.00
2022-12-08T15:53:37.459Z,5.97
2022-12-08T15:56:27.722Z,7.07
2022-12-08T15:59:18.507Z,6.80
2022-12-08T16:02:06.095Z,8.10
2022-12-08T16:05:40.180Z,7.45
2022-12-08T16:08:07.807Z,7.72
2022-12-08T16:11:56.800Z,8.00
2022-12-08T16:15:39.156Z,8.70
2022-12-08T16:17:39.344Z,7.93
2022-12-08T16:20:43.906Z,9.85
2022-12-08T16:23:42.809Z,8.30
2022-12-08T16:29:39.174Z,8.52
2022-12-08T16:32:27.837Z,7.97
2022-12-08T16:35:15.638Z,9.48
2022-12-08T16:38:03.210Z,8.10
2022-12-08T16:41:08.898Z,9.75
2022-12-08T16:43:56.391Z,8.95
2022-12-08T16:46:43.914Z,9.55
2022-12-08T16:49:31.323Z,11.48
2022-12-08T16:52:18.846Z,15.25
2022-12-08T16:55:11.612Z,9.63
2022-12-08T16:57:59.170Z,8.57
2022-12-08T17:00:47.227Z,9.82
2022-12-08T17:03:34.841Z,8.70
2022-12-08T17:06:22.690Z,9.77
2022-12-08T17:09:10.284Z,10.20
2022-12-08T17:12:03.505Z,8.65
2022-12-08T17:14:51.681Z,9.00
2022-12-08T17:17:39.527Z,10.68
2022-12-08T17:20:28.145Z,9.63
2022-12-08T17:23:15.675Z,9.55
2022-12-08T17:26:03.801Z,10.68
2022-12-08T17:29:00.400Z,18.85
2022-12-08T17:31:48.847Z,14.05
2022-12-08T17:34:36.425Z,11.23
2022-12-08T17:37:23.940Z,12.80
2022-12-08T17:40:11.491Z,9.95
2022-12-08T17:42:59.051Z,11.85
2022-12-08T17:45:48.117Z,9.32
2022-12-08T17:48:35.762Z,10.77
2022-12-08T17:51:23.378Z,10.68
2022-12-08T17:54:10.897Z,10.50
2022-12-08T17:56:58.715Z,24.70
2022-12-08T17:59:46.302Z,10.70
2022-12-08T18:02:35.488Z,10.05
2022-12-08T18:05:23.220Z,15.15
2022-12-08T18:08:11.100Z,10.20
2022-12-08T18:10:58.385Z,12.05
2022-12-08T18:13:46.301Z,11.65
2022-12-08T18:16:33.808Z,19.63
2022-12-08T18:19:22.508Z,13.18
2022-12-08T18:22:10.878Z,15.65
2022-12-08T18:24:58.420Z,14.70
2022-12-08T18:27:45.631Z,49.58
2022-12-08T18:30:33.183Z,17.45
2022-12-08T18:33:20.811Z,11.25
2022-12-08T18:36:10.669Z,33.40
2022-12-08T18:38:58.272Z,26.75
2022-12-08T18:41:45.987Z,14.57
2022-12-08T18:44:33.564Z,17.52
2022-12-08T18:47:21.067Z,15.13
2022-12-08T18:50:09.126Z,16.30
2022-12-08T18:52:56.671Z,14.63
2022-12-08T18:55:46.576Z,16.25
2022-12-08T18:58:34.366Z,13.82
2022-12-08T19:01:21.936Z,16.25
2022-12-08T19:07:18.459Z,18.02
2022-12-08T19:10:06.923Z,17.65
2022-12-08T19:12:54.632Z,19.35
2022-12-08T19:15:42.154Z,19.90
2022-12-08T19:18:29.257Z,22.38
2022-12-08T19:21:16.788Z,23.98
2022-12-08T19:24:04.631Z,24.02
2022-12-08T19:26:52.301Z,23.27
2022-12-08T19:29:39.845Z,24.70
2022-12-08T19:32:27.526Z,25.52
2022-12-08T19:35:15.035Z,24.67
2022-12-08T19:38:02.700Z,25.30
2022-12-08T19:41:08.960Z,24.75
2022-12-08T19:44:15.325Z,25.25
2022-12-08T19:47:02.927Z,27.90
2022-12-08T19:49:50.385Z,23.88
2022-12-08T19:52:37.929Z,24.83
2022-12-08T19:55:25.616Z,27.95
2022-12-08T19:58:13.102Z,28.25
2022-12-08T20:01:00.715Z,29.08
2022-12-08T20:03:48.261Z,26.08
2022-12-08T20:06:35.831Z,28.35
2022-12-08T20:09:24.297Z,24.38
2022-12-08T20:12:12.197Z,25.38
2022-12-08T20:14:59.755Z,26.10
2022-12-08T20:17:47.315Z,28.75
2022-12-08T20:20:34.800Z,27.77
2022-12-08T20:23:22.520Z,27.02
2022-12-08T20:26:12.472Z,26.23
2022-12-08T20:28:59.583Z,27.05
2022-12-08T20:31:47.162Z,27.05
2022-12-08T20:34:35.243Z,25.08
2022-12-08T20:37:22.797Z,27.85
2022-12-08T20:40:10.505Z,27.15
2022-12-08T20:42:58.044Z,25.30
2022-12-08T20:45:45.713Z,26.75
2022-12-08T20:48:33.438Z,25.55
2022-12-08T20:51:21.133Z,28.67
2022-12-08T20:54:09.645Z,25.73
2022-12-08T20:56:57.276Z,23.35
2022-12-08T20:59:44.951Z,25.00
2022-12-08T21:02:32.556Z,24.15
2022-12-08T21:05:20.487Z,22.08
2022-12-08T21:08:07.958Z,22.20
2022-12-08T21:10:56.415Z,21.15
2022-12-08T21:13:44.344Z,78.72
2022-12-08T21:16:32.035Z,30.67
2022-12-08T21:19:20.543Z,52.60
2022-12-08T21:22:08.205Z,40.83
2022-12-08T21:24:55.764Z,51.78
2022-12-08T21:27:43.558Z,39.17
2022-12-08T21:30:31.248Z,28.20
2022-12-08T21:33:18.861Z,29.50
2022-12-08T21:36:12.492Z,32.80
2022-12-08T21:39:04.382Z,27.70
2022-12-08T21:42:10.808Z,36.33
2022-12-08T21:44:58.524Z,29.05
2022-12-08T21:47:47.252Z,33.15
2022-12-08T21:50:34.949Z,21.00
2022-12-08T21:53:25.110Z,18.90
2022-12-08T21:56:12.661Z,18.83
2022-12-08T21:59:00.246Z,19.25
2022-12-08T22:01:47.859Z,19.38
2022-12-08T22:04:35.748Z,22.83
2022-12-08T22:07:23.458Z,20.58
2022-12-08T22:10:11.601Z,20.95
2022-12-08T22:12:59.526Z,20.67
2022-12-08T22:15:47.192Z,20.52
2022-12-08T22:18:35.068Z,22.40
2022-12-08T22:21:23.070Z,24.50
2022-12-08T22:24:10.739Z,22.70
2022-12-08T22:26:58.746Z,23.30
2022-12-08T22:29:47.206Z,23.75
2022-12-08T22:32:35.022Z,22.30
2022-12-08T22:35:22.922Z,24.23
2022-12-08T22:38:10.631Z,21.60
2022-12-08T22:40:58.311Z,25.83
2022-12-08T22:43:46.834Z,25.23
2022-12-08T22:46:34.972Z,25.33
2022-12-08T22:49:24.820Z,32.17
2022-12-08T22:52:12.500Z,148.45
2022-12-08T22:55:00.272Z,55.80
2022-12-08T22:57:47.833Z,56.00
2022-12-08T23:00:35.526Z,33.38
2022-12-08T23:03:23.154Z,31.23
2022-12-08T23:06:16.529Z,34.90
2022-12-08T23:09:04.309Z,30.85
2022-12-08T23:11:52.209Z,30.60
2022-12-08T23:14:39.947Z,31.67
2022-12-08T23:17:27.803Z,30.13
2022-12-08T23:20:15.518Z,28.35
2022-12-08T23:23:03.192Z,25.42
2022-12-08T23:25:50.935Z,27.35
2022-12-08T23:28:38.798Z,29.10
2022-12-08T23:31:26.569Z,35.65
2022-12-08T23:34:14.324Z,34.33
2022-12-08T23:37:01.825Z,39.75
2022-12-08T23:39:49.338Z,32.30
2022-12-08T23:42:37.245Z,34.33
2022-12-08T23:45:24.764Z,32.88
2022-12-08T23:48:12.300Z,32.55
2022-12-08T23:50:59.403Z,33.05
2022-12-08T23:53:46.983Z,34.25
2022-12-08T23:56:34.717Z,31.85
2022-12-08T23:59:22.591Z,37.22
